Terminal Aerodrome Forecast
Issued by NWS

Home | Current Version | Previous Version | Text Only | Print | Product List | Glossary Off
Versions: 1 2 3 4 5 6 7 8 9 10 11 12 13 14 15 16 17 18 19 20 21 22

000
FTUS42 KTBW 181700
TAFRSW
TAF
KRSW 181739Z 1818/1918 17013KT P6SM SCT035 OVC060
      TEMPO 1821/1824 VRB15G25KT 5SM TSRA BKN025CB
     FM190000 19011KT 5SM SHRA BKN030 OVC080
     FM190600 19008KT P6SM BKN025
     FM191200 25008KT P6SM BKN030
     FM191500 27012KT P6SM SCT030 BKN050=

USA.gov is the U.S. government's official web portal to all federal, state and local government web resources and services.